createdAt,value
2018-07-10T00:03:24.961Z,88.52
2018-07-10T00:06:20.791Z,87.94
2018-07-10T00:11:09.193Z,88.05
2018-07-10T00:13:38.215Z,88.61
2018-07-10T00:16:07.565Z,89.18
2018-07-10T00:18:36.868Z,87.93
2018-07-10T00:21:05.866Z,87.96
2018-07-10T00:23:35.344Z,88.97
2018-07-10T00:26:04.431Z,88.85
2018-07-10T00:28:33.529Z,88.90
2018-07-10T00:31:02.547Z,87.95
2018-07-10T00:33:31.944Z,88.93
2018-07-10T00:36:01.422Z,89.24
2018-07-10T00:38:41.368Z,89.27
2018-07-10T00:41:11.510Z,88.97
2018-07-10T00:43:40.525Z,89.08
2018-07-10T00:46:09.549Z,89.37
2018-07-10T00:48:38.648Z,89.63
2018-07-10T00:51:08.200Z,89.57
2018-07-10T00:53:37.312Z,88.99
2018-07-10T00:56:06.341Z,88.89
2018-07-10T00:58:35.760Z,90.12
2018-07-10T01:01:04.967Z,90.05
2018-07-10T01:03:33.983Z,89.45
2018-07-10T01:06:03.119Z,89.05
2018-07-10T01:08:32.126Z,90.18
2018-07-10T01:11:08.955Z,90.12
2018-07-10T01:13:38.653Z,89.11
2018-07-10T01:16:07.947Z,89.55
2018-07-10T01:18:40.125Z,89.03
2018-07-10T01:21:10.425Z,89.72
2018-07-10T01:23:39.961Z,89.64
2018-07-10T01:26:12.786Z,89.02
2018-07-10T01:28:42.386Z,90.31
2018-07-10T01:31:12.752Z,89.91
2018-07-10T01:33:41.893Z,90.21
2018-07-10T01:36:11.371Z,89.77
2018-07-10T01:38:40.775Z,90.68
2018-07-10T01:41:09.839Z,90.08
2018-07-10T01:43:38.939Z,89.22
2018-07-10T01:46:08.824Z,89.33
2018-07-10T01:48:37.895Z,90.43
2018-07-10T01:51:07.545Z,90.81
2018-07-10T01:53:37.132Z,90.22
2018-07-10T01:56:06.713Z,89.57
2018-07-10T01:58:36.240Z,90.12
2018-07-10T02:01:05.579Z,90.21
2018-07-10T02:03:35.245Z,91.58
2018-07-10T02:06:05.486Z,91.56
2018-07-10T02:08:34.747Z,91.09
2018-07-10T02:11:04.113Z,91.05
2018-07-10T02:13:33.580Z,91.13
2018-07-10T02:16:02.941Z,91.39
2018-07-10T02:18:32.177Z,90.91
2018-07-10T02:21:04.490Z,91.65
2018-07-10T02:23:39.236Z,91.94
2018-07-10T02:26:16.158Z,91.89
2018-07-10T02:28:45.739Z,91.54
2018-07-10T02:31:14.849Z,91.30
2018-07-10T02:33:44.453Z,90.86
2018-07-10T02:36:13.518Z,90.34
2018-07-10T02:38:46.060Z,90.55
2018-07-10T02:41:19.775Z,90.04
2018-07-10T02:43:59.344Z,91.17
2018-07-10T02:46:30.621Z,92.35
2018-07-10T02:49:09.491Z,91.41
2018-07-10T02:51:42.031Z,91.68
2018-07-10T02:54:11.179Z,91.53
2018-07-10T02:56:41.502Z,91.13
2018-07-10T02:59:11.151Z,91.56
2018-07-10T03:01:40.598Z,91.77
2018-07-10T03:04:09.659Z,91.74
2018-07-10T03:06:38.726Z,91.28
2018-07-10T03:09:08.033Z,91.15
2018-07-10T03:11:37.439Z,91.23
2018-07-10T03:14:08.858Z,91.73
2018-07-10T03:16:38.520Z,92.15
2018-07-10T03:19:08.853Z,92.51
2018-07-10T03:21:37.871Z,91.97
2018-07-10T03:24:07.058Z,91.40
2018-07-10T03:26:36.093Z,91.76
2018-07-10T03:29:05.220Z,92.47
2018-07-10T03:31:34.373Z,91.23
2018-07-10T03:34:03.501Z,91.31
2018-07-10T03:36:32.899Z,91.68
2018-07-10T03:39:03.114Z,90.82
2018-07-10T03:41:32.321Z,90.89
2018-07-10T03:44:01.453Z,91.57
2018-07-10T03:46:31.394Z,92.49
2018-07-10T03:49:03.434Z,93.09
2018-07-10T03:51:32.530Z,93.80
2018-07-10T03:54:02.172Z,93.87
2018-07-10T03:56:31.771Z,93.07
2018-07-10T03:59:01.259Z,92.81
2018-07-10T04:01:33.715Z,92.32
2018-07-10T04:04:02.814Z,91.71
2018-07-10T04:06:32.485Z,92.78
2018-07-10T04:09:04.960Z,92.59
2018-07-10T04:11:34.932Z,91.91
2018-07-10T04:14:04.830Z,90.95
2018-07-10T04:16:34.433Z,91.75
2018-07-10T04:19:04.392Z,91.83
2018-07-10T04:21:34.458Z,91.78
2018-07-10T04:24:18.807Z,92.82
2018-07-10T04:28:00.359Z,92.12
2018-07-10T04:32:39.208Z,92.77
2018-07-10T04:35:09.144Z,92.84
2018-07-10T04:37:40.604Z,93.70
2018-07-10T04:40:09.961Z,94.77
2018-07-10T04:42:55.581Z,94.21
2018-07-10T04:45:26.224Z,93.36
2018-07-10T04:47:57.806Z,92.70
2018-07-10T04:51:08.546Z,92.48
2018-07-10T04:53:46.234Z,91.40
2018-07-10T04:56:16.118Z,90.91
2018-07-10T04:58:47.593Z,90.97
2018-07-10T05:01:16.693Z,90.44
2018-07-10T05:03:45.796Z,91.16
2018-07-10T05:06:14.893Z,89.06
2018-07-10T05:08:44.631Z,88.25
2018-07-10T05:11:13.771Z,87.76
2018-07-10T05:13:42.870Z,85.72
2018-07-10T05:16:12.033Z,84.17
2018-07-10T05:18:41.095Z,84.86
2018-07-10T05:21:13.727Z,84.37
2018-07-10T05:23:42.996Z,84.44
2018-07-10T05:26:16.943Z,82.85
2018-07-10T05:28:51.264Z,83.83
2018-07-10T05:31:20.369Z,82.85
2018-07-10T05:33:51.091Z,81.70
2018-07-10T05:36:22.525Z,77.41
2018-07-10T05:39:08.816Z,78.51
2018-07-10T05:41:40.063Z,78.28
2018-07-10T05:44:09.113Z,76.37
2018-07-10T05:46:38.283Z,77.80
2018-07-10T05:49:07.694Z,76.62
2018-07-10T05:51:43.837Z,77.05
2018-07-10T05:54:13.268Z,75.96
2018-07-10T05:56:42.456Z,77.50
2018-07-10T05:59:11.488Z,78.18
2018-07-10T06:01:41.290Z,77.52
2018-07-10T06:04:15.070Z,75.38
2018-07-10T06:06:44.376Z,73.81
2018-07-10T06:09:14.611Z,73.88
2018-07-10T06:11:44.169Z,73.47
2018-07-10T06:14:13.220Z,71.13
2018-07-10T06:16:43.420Z,71.42
2018-07-10T06:19:12.555Z,73.50
2018-07-10T06:21:46.531Z,72.12
2018-07-10T06:24:18.041Z,69.19
2018-07-10T06:26:53.109Z,66.73
2018-07-10T06:29:24.880Z,68.15
2018-07-10T06:31:55.714Z,66.83
2018-07-10T06:34:36.732Z,67.82
2018-07-10T06:37:09.019Z,70.31
2018-07-10T06:39:38.485Z,72.06
2018-07-10T06:42:13.440Z,72.05
2018-07-10T06:44:44.268Z,69.52
2018-07-10T06:47:26.654Z,70.68
2018-07-10T06:49:55.893Z,68.13
2018-07-10T06:52:25.228Z,67.19
2018-07-10T06:55:05.792Z,65.54
2018-07-10T06:57:36.940Z,64.39
2018-07-10T07:00:10.933Z,67.94
2018-07-10T07:02:40.620Z,65.63
2018-07-10T07:05:10.292Z,64.49
2018-07-10T07:07:40.566Z,64.90
2018-07-10T07:10:11.418Z,64.37
2018-07-10T07:12:41.656Z,63.26
2018-07-10T07:15:12.772Z,65.17
2018-07-10T07:17:44.891Z,64.55
2018-07-10T07:20:14.229Z,64.88
2018-07-10T07:22:43.813Z,63.77
2018-07-10T07:25:13.375Z,62.24
2018-07-10T07:27:43.434Z,62.47
2018-07-10T07:30:12.884Z,63.62
2018-07-10T07:32:42.344Z,65.59
2018-07-10T07:35:12.140Z,63.42
2018-07-10T07:37:42.311Z,65.81
2018-07-10T07:40:13.416Z,68.03
2018-07-10T07:42:43.125Z,64.95
2018-07-10T07:45:12.264Z,63.69
2018-07-10T07:47:41.435Z,64.75
2018-07-10T07:50:10.534Z,64.83
2018-07-10T07:52:40.376Z,65.50
2018-07-10T07:55:09.496Z,64.58
2018-07-10T07:57:38.623Z,64.99
2018-07-10T08:00:07.774Z,63.91
2018-07-10T08:02:37.721Z,63.31
2018-07-10T08:05:07.232Z,59.72
2018-07-10T08:07:36.803Z,62.87
2018-07-10T08:10:06.111Z,62.18
2018-07-10T08:12:35.735Z,61.78
2018-07-10T08:15:05.277Z,61.61
2018-07-10T08:17:37.158Z,60.75
2018-07-10T08:20:07.232Z,59.76
2018-07-10T08:22:36.847Z,59.41
2018-07-10T08:25:07.865Z,61.49
2018-07-10T08:27:38.864Z,60.22
2018-07-10T08:30:09.255Z,59.35
2018-07-10T08:32:39.346Z,60.80
2018-07-10T08:35:08.611Z,59.06
2018-07-10T08:37:37.979Z,59.82
2018-07-10T08:40:07.551Z,61.22
2018-07-10T08:42:36.760Z,60.72
2018-07-10T08:45:06.225Z,60.13
2018-07-10T08:47:36.101Z,59.34
2018-07-10T08:50:05.802Z,60.39
2018-07-10T08:52:35.584Z,61.07
2018-07-10T08:55:04.888Z,62.27
2018-07-10T08:57:34.261Z,64.19
2018-07-10T09:00:05.536Z,61.63
2018-07-10T09:02:35.095Z,62.77
2018-07-10T09:05:05.656Z,54.87
2018-07-10T09:07:35.058Z,57.03
2018-07-10T09:10:05.062Z,58.40
2018-07-10T09:12:34.728Z,58.76
2018-07-10T09:15:04.028Z,59.29
2018-07-10T09:17:33.635Z,59.63
2018-07-10T09:20:04.496Z,60.72
2018-07-10T09:22:34.032Z,59.93
2018-07-10T09:25:05.768Z,60.65
2018-07-10T09:27:35.541Z,59.50
2018-07-10T09:30:04.999Z,60.44
2018-07-10T09:32:39.676Z,59.51
2018-07-10T09:35:09.238Z,60.69
2018-07-10T09:37:45.684Z,59.95
2018-07-10T09:40:17.988Z,62.20
2018-07-10T09:42:54.338Z,61.79
2018-07-10T09:45:26.572Z,62.87
2018-07-10T09:47:56.151Z,64.14
2018-07-10T09:50:25.797Z,63.39
2018-07-10T09:52:55.690Z,61.37
2018-07-10T09:55:25.410Z,62.50
2018-07-10T09:57:58.755Z,61.08
2018-07-10T10:00:33.478Z,61.14
2018-07-10T10:03:04.270Z,61.35
2018-07-10T10:05:37.827Z,59.77
2018-07-10T10:08:07.309Z,60.91
2018-07-10T10:10:36.907Z,58.93
2018-07-10T10:13:06.431Z,60.47
2018-07-10T15:04:35.108Z,62.38
2018-07-10T15:07:06.113Z,69.05
2018-07-10T15:09:35.621Z,72.18
2018-07-10T15:12:05.555Z,73.42
2018-07-10T15:14:35.015Z,75.82
2018-07-10T15:17:10.021Z,76.93
2018-07-10T15:19:39.924Z,77.36
2018-07-10T15:22:09.421Z,79.86
2018-07-10T15:24:39.105Z,80.61
2018-07-10T15:27:08.792Z,82.18
2018-07-10T15:29:38.800Z,81.63
2018-07-10T15:32:08.467Z,81.16
2018-07-10T15:34:38.443Z,81.90
2018-07-10T15:37:08.095Z,80.68
2018-07-10T15:39:37.906Z,81.48
2018-07-10T15:42:07.607Z,83.84
2018-07-10T15:44:37.024Z,83.33
2018-07-10T15:47:06.769Z,87.02
2018-07-10T15:49:37.366Z,85.45
2018-07-10T15:52:07.116Z,86.15
2018-07-10T15:54:37.167Z,84.60
2018-07-10T15:57:08.237Z,84.02
2018-07-10T15:59:37.761Z,82.87
2018-07-10T16:02:06.984Z,84.10
2018-07-10T16:04:36.352Z,84.34
2018-07-10T16:07:05.862Z,85.00
2018-07-10T16:09:35.326Z,86.14
2018-07-10T16:12:04.948Z,86.60
2018-07-10T16:14:34.868Z,86.60
2018-07-10T16:17:12.770Z,87.31
2018-07-10T16:19:45.745Z,85.66
2018-07-10T16:22:18.164Z,87.92
2018-07-10T16:24:53.056Z,87.24
2018-07-10T16:27:29.969Z,87.30
2018-07-10T16:29:59.835Z,89.49
2018-07-10T16:32:29.011Z,90.79
2018-07-10T16:34:58.254Z,89.69
2018-07-10T16:37:27.631Z,89.03
2018-07-10T16:39:57.846Z,89.90
2018-07-10T16:42:31.983Z,89.49
2018-07-10T16:45:01.205Z,88.96
2018-07-10T16:47:36.557Z,87.79
2018-07-10T16:50:07.596Z,88.80
2018-07-10T16:52:46.770Z,88.48
2018-07-10T16:55:16.011Z,89.49
2018-07-10T16:57:45.336Z,89.67
2018-07-10T17:00:14.669Z,91.58
2018-07-10T17:02:44.067Z,92.63
2018-07-10T17:05:13.678Z,92.53
2018-07-10T17:07:42.804Z,91.73
2018-07-10T17:10:12.441Z,91.51
2018-07-10T17:12:41.782Z,90.47
2018-07-10T17:15:11.554Z,90.42
2018-07-10T17:17:43.095Z,91.16
2018-07-10T17:20:15.252Z,90.98
2018-07-10T17:22:45.504Z,90.28
2018-07-10T17:25:15.583Z,90.76
2018-07-10T17:27:49.735Z,91.55
2018-07-10T17:30:19.004Z,91.86
2018-07-10T17:32:48.466Z,92.36
2018-07-10T17:35:17.737Z,91.54
2018-07-10T17:37:49.145Z,91.18
2018-07-10T17:40:22.847Z,90.24
2018-07-10T17:42:53.046Z,90.87
2018-07-10T17:45:25.222Z,90.74
2018-07-10T17:47:55.420Z,91.54
2018-07-10T17:50:26.216Z,92.13
2018-07-10T17:52:56.207Z,92.50
2018-07-10T17:55:25.472Z,92.81
2018-07-10T17:58:03.602Z,92.26
2018-07-10T18:00:33.484Z,93.27
2018-07-10T18:03:02.660Z,93.30
2018-07-10T18:05:31.989Z,93.21
2018-07-10T18:08:01.237Z,92.50
2018-07-10T18:10:30.818Z,92.41
2018-07-10T18:12:59.989Z,91.86
2018-07-10T18:15:30.185Z,91.66
2018-07-10T18:17:59.804Z,93.65
2018-07-10T18:20:29.095Z,93.54
2018-07-10T18:22:59.070Z,94.93
2018-07-10T18:25:28.347Z,94.54
2018-07-10T18:27:57.827Z,94.30
2018-07-10T18:30:27.304Z,92.74
2018-07-10T18:32:56.700Z,93.04
2018-07-10T18:35:26.216Z,93.83
2018-07-10T18:37:55.905Z,94.63
2018-07-10T18:40:27.621Z,93.53
2018-07-10T18:42:59.128Z,92.75
2018-07-10T18:45:30.173Z,94.67
2018-07-10T18:48:00.032Z,96.18
2018-07-10T18:50:30.874Z,95.64
2018-07-10T18:53:02.020Z,96.99
2018-07-10T18:55:33.129Z,96.27
2018-07-10T18:58:10.732Z,96.35
2018-07-10T19:00:46.895Z,96.07
2018-07-10T19:03:16.711Z,96.51
2018-07-10T19:05:48.354Z,95.84
2018-07-10T19:08:17.677Z,95.94
2018-07-10T19:10:49.831Z,96.48
2018-07-10T19:13:20.080Z,96.36
2018-07-10T19:15:50.171Z,96.98
2018-07-10T19:18:19.265Z,95.61
2018-07-10T19:21:01.514Z,95.59
2018-07-10T19:23:40.505Z,95.40
2018-07-10T19:26:09.943Z,95.44
2018-07-10T19:28:40.422Z,96.60
2018-07-10T19:31:20.375Z,97.62
2018-07-10T19:33:53.059Z,96.00
2018-07-10T19:36:22.614Z,95.97
2018-07-10T19:38:52.009Z,96.81
2018-07-10T19:41:21.801Z,96.72
2018-07-10T19:43:51.599Z,96.00
2018-07-10T19:46:21.207Z,95.97
2018-07-10T19:48:53.588Z,94.92
2018-07-10T19:51:25.432Z,95.55
2018-07-10T19:54:05.156Z,95.38
2018-07-10T19:56:34.821Z,95.91
2018-07-10T19:59:07.272Z,96.38
2018-07-10T20:01:42.446Z,94.35
2018-07-10T20:04:16.256Z,95.56
2018-07-10T20:06:57.415Z,95.47
2018-07-10T20:09:30.428Z,95.84
2018-07-10T20:12:05.773Z,97.23
2018-07-10T20:14:47.617Z,97.21
2018-07-10T20:17:19.492Z,96.44
2018-07-10T20:19:55.736Z,96.41
2018-07-10T20:24:52.647Z,96.94
2018-07-10T20:27:35.098Z,96.75
2018-07-10T20:31:18.468Z,96.74
2018-07-10T20:33:59.097Z,96.05
2018-07-10T20:36:28.315Z,98.07
2018-07-10T20:38:58.860Z,96.84
2018-07-10T20:41:32.813Z,96.52
2018-07-10T20:44:06.482Z,95.99
2018-07-10T20:46:37.492Z,97.18
2018-07-10T20:49:06.687Z,97.27
2018-07-10T20:51:45.526Z,97.61
2018-07-10T20:54:26.142Z,96.47
2018-07-10T20:58:02.077Z,97.12
2018-07-10T21:00:39.039Z,97.98
2018-07-10T21:04:16.168Z,96.76
2018-07-10T21:06:55.790Z,96.60
2018-07-10T21:10:34.146Z,97.54
2018-07-10T21:13:07.965Z,96.49
2018-07-10T21:16:20.320Z,97.12
2018-07-10T21:21:21.330Z,97.19
2018-07-10T21:23:57.340Z,97.33
2018-07-10T21:26:38.898Z,99.03
2018-07-10T21:29:20.276Z,98.66
2018-07-10T21:31:56.606Z,98.03
2018-07-10T21:34:34.275Z,97.33
2018-07-10T21:37:49.539Z,97.53
2018-07-10T21:40:32.938Z,97.48
2018-07-10T21:43:08.847Z,99.08
2018-07-10T21:46:51.522Z,98.58
2018-07-10T21:49:27.828Z,97.74
2018-07-10T21:51:57.501Z,98.78
2018-07-10T21:54:26.933Z,98.57
2018-07-10T21:56:56.618Z,98.08
2018-07-10T21:59:26.610Z,97.30
2018-07-10T22:02:01.361Z,97.43
2018-07-10T22:04:32.062Z,98.25
2018-07-10T22:07:02.932Z,98.11
2018-07-10T22:09:35.519Z,97.77
2018-07-10T22:12:08.390Z,98.44
2018-07-10T22:14:37.938Z,97.77
2018-07-10T22:17:12.173Z,99.10
2018-07-10T22:19:42.556Z,98.77
2018-07-10T22:22:12.441Z,98.49
2018-07-10T22:24:42.079Z,98.25
2018-07-10T22:27:11.379Z,98.13
2018-07-10T22:29:45.836Z,97.22
2018-07-10T22:32:20.385Z,98.28
2018-07-10T22:34:49.998Z,98.18
2018-07-10T22:37:19.358Z,99.80
2018-07-10T22:39:48.946Z,99.01
2018-07-10T22:42:18.536Z,98.09
2018-07-10T22:44:52.856Z,99.26
2018-07-10T22:47:29.407Z,99.87
2018-07-10T22:50:04.195Z,99.69
2018-07-10T22:52:34.626Z,98.72
2018-07-10T22:55:03.996Z,99.12
2018-07-10T22:57:33.661Z,98.64
2018-07-10T23:00:03.252Z,99.10
2018-07-10T23:02:32.977Z,98.85
2018-07-10T23:05:02.279Z,97.95
2018-07-10T23:07:31.722Z,98.88
2018-07-10T23:10:00.895Z,98.55
2018-07-10T23:12:29.972Z,99.00
2018-07-10T23:14:59.156Z,98.33
2018-07-10T23:17:28.158Z,98.65
2018-07-10T23:19:57.351Z,98.88
2018-07-10T23:22:36.153Z,98.01
2018-07-10T23:25:05.628Z,97.86
2018-07-10T23:27:35.580Z,98.89
2018-07-10T23:30:05.079Z,100.00
2018-07-10T23:32:34.805Z,100.00
2018-07-10T23:35:04.776Z,100.00
2018-07-10T23:37:34.618Z,100.00
2018-07-10T23:40:06.512Z,99.40
2018-07-10T23:42:37.264Z,99.24
2018-07-10T23:45:15.552Z,99.09
2018-07-10T23:47:48.392Z,99.16
2018-07-10T23:50:22.239Z,99.12
2018-07-10T23:53:18.061Z,99.02
2018-07-10T23:55:47.535Z,98.76
2018-07-10T23:58:17.124Z,99.34
